WetterOnline ( http://www.wetteronline.at )

Wetter aktuell München

Aktuelles Wetter: München/Stadt (535m)

6-stündlich | Neueste Meldungen
Ortszeit Temperatur Wetter
Mi, 23.01. 13:00 -3.8° C bedeckt
Mi, 23.01. 7:00 -4.7° C bedeckt
Mi, 23.01. 1:00 -4.7° C bedeckt
Di, 22.01. 19:00 -3.3° C bedeckt
Di, 22.01. 13:00 -2.4° C bedeckt
Di, 22.01. 7:00 -4.4° C bedeckt
Di, 22.01. 1:00 -3.3° C bedeckt
Mo, 21.01. 19:00 -2.4° C bedeckt
Ortszeit Temperatur Wetter
Mi, 23.01. 18:10 -3.7° C bedeckt
Mi, 23.01. 18:00 -3.6° C bedeckt
Mi, 23.01. 17:50 -3.6° C bedeckt
Mi, 23.01. 17:40 -3.6° C bedeckt
Mi, 23.01. 17:30 -3.6° C bedeckt
Mi, 23.01. 17:20 -3.6° C bedeckt
Mi, 23.01. 17:00 -3.4° C bedeckt
Mi, 23.01. 16:30 -3.5° C bedeckt
Mi, 23.01. 16:00 -3.4° C bedeckt
Mi, 23.01. 15:30 -3.4° C bedeckt
Mi, 23.01. 15:00 -3.4° C bedeckt
Ortszeit Relative Feuchte Sichtweite
Mi, 23.01. 13:00 83% 6 km
Mi, 23.01. 7:00 89% 5.0 km
Mi, 23.01. 1:00 89% 4.5 km
Di, 22.01. 19:00 82% 10 km
Di, 22.01. 13:00 79% 9 km
Di, 22.01. 7:00 97% 1.1 km
Di, 22.01. 1:00 90% 4.4 km
Mo, 21.01. 19:00 84% 9 km
Ortszeit Relative Feuchte Sichtweite
Mi, 23.01. 18:10 77% -
Mi, 23.01. 18:00 77% 9 km
Mi, 23.01. 17:50 77% -
Mi, 23.01. 17:40 76% -
Mi, 23.01. 17:30 74% 11 km
Mi, 23.01. 17:20 74% -
Mi, 23.01. 17:00 74% 11 km
Mi, 23.01. 16:30 75% 10 km
Mi, 23.01. 16:00 76% 10 km
Mi, 23.01. 15:30 78% 9 km
Mi, 23.01. 15:00 78% 8 km
Ortszeit Niederschlagsmenge Niederschlagsart
Mi, 23.01. 13:00 0.0 l/m2 in 6 Std. -
Mi, 23.01. 7:00 0.0 l/m2 in 12 Std. -
Mi, 23.01. 1:00 0.0 l/m2 in 6 Std. -
Di, 22.01. 19:00 0.1 l/m2 in 12 Std. -
Di, 22.01. 13:00 0.1 l/m2 in 6 Std. Schnee
Di, 22.01. 7:00 0.1 l/m2 in 12 Std. Schnee
Di, 22.01. 1:00 0.0 l/m2 in 6 Std. -
Mo, 21.01. 19:00 0.1 l/m2 in 12 Std. Schnee
Ortszeit Niederschlagsmenge Niederschlagsart
Mi, 23.01. 18:10 keine Meldung -
Mi, 23.01. 18:00 0.0 l/m2 in 1 Std. -
Mi, 23.01. 17:50 keine Meldung -
Mi, 23.01. 17:40 keine Meldung -
Mi, 23.01. 17:30 0.0 l/m2 in 1 Std. -
Mi, 23.01. 17:20 keine Meldung -
Mi, 23.01. 17:00 0.0 l/m2 in 1 Std. -
Mi, 23.01. 16:30 0.0 l/m2 in 1 Std. -
Mi, 23.01. 16:00 0.0 l/m2 in 1 Std. -
Mi, 23.01. 15:30 0.0 l/m2 in 1 Std. -
Mi, 23.01. 15:00 0.0 l/m2 in 1 Std. -
Ortszeit Stärke Spitze Richtung
km/h Bft. km/h Grad Sektor
Mi, 23.01. 13:00 9 2 15 60° NO
Mi, 23.01. 7:00 7 2 11 70° O
Mi, 23.01. 1:00 4 1 22 90° O
Di, 22.01. 19:00 11 2 25 80° O
Di, 22.01. 13:00 4 1 14 230° SW
Di, 22.01. 7:00 4 1 14 330° NW
Di, 22.01. 1:00 6 1 15 250° W
Mo, 21.01. 19:00 0 0 11 - -
Ortszeit Stärke Spitze Richtung
km/h Bft. km/h Grad Sektor
Mi, 23.01. 18:10 7 2 - 50° NO
Mi, 23.01. 18:00 7 2 11 30° NO
Mi, 23.01. 17:50 7 2 - 30° NO
Mi, 23.01. 17:40 7 2 - 50° NO
Mi, 23.01. 17:30 7 2 11 40° NO
Mi, 23.01. 17:20 7 2 - 40° NO
Mi, 23.01. 17:00 6 1 11 50° NO
Mi, 23.01. 16:30 6 1 11 30° NO
Mi, 23.01. 16:00 6 1 11 80° O
Mi, 23.01. 15:30 7 2 11 50° NO
Mi, 23.01. 15:00 6 1 13 80° O
Ortszeit Untergrenze Bedeckung Gattung
total tief tief mittel hoch
Mi, 23.01. 13:00 240 m 8/8 8/8 - - -
Mi, 23.01. 7:00 150 m 8/8 8/8 - - -
Mi, 23.01. 1:00 150 m 8/8 8/8 - - -
Di, 22.01. 19:00 300 m 8/8 8/8 - - -
Di, 22.01. 13:00 300 m 8/8 8/8 - - -
Di, 22.01. 7:00 30 m 8/8 8/8 - - -
Di, 22.01. 1:00 150 m 8/8 8/8 - - -
Mo, 21.01. 19:00 300 m 8/8 8/8 - - -
Ortszeit Bedeckungsgrad in Achtel und Wolkenuntergrenze
Mi, 23.01. 18:10 8(450m)
Mi, 23.01. 18:00 8(480m)
Mi, 23.01. 17:50 8(480m)
Mi, 23.01. 17:40 8(510m)
Mi, 23.01. 17:30 8(510m)
Mi, 23.01. 17:20 8(510m)
Mi, 23.01. 17:00 8(510m)
Mi, 23.01. 16:30 8(480m)
Mi, 23.01. 16:00 8(450m)
Mi, 23.01. 15:30 8(390m)
Mi, 23.01. 15:00 8(360m)
Ortszeit Luftdruck NN (hPa) Tendenz (hPa in 3 Std.)
Mi, 23.01. 13:00 999 - 1,2
Mi, 23.01. 7:00 1001 - 1,5
Mi, 23.01. 1:00 1005 - 1,8
Di, 22.01. 19:00 1008 - 2,0
Di, 22.01. 13:00 1013 - 2,4
Di, 22.01. 7:00 1017 - 1,5
Di, 22.01. 1:00 1020 - 0,7
Mo, 21.01. 19:00 1021 - 0,3
Ortszeit Luftdruck NN (hPa) Tendenz (hPa in 3 Std.)
Mi, 23.01. 18:10 1000 keine Meldung
Mi, 23.01. 18:00 1000 + 1,0
Mi, 23.01. 17:50 1000 keine Meldung
Mi, 23.01. 17:40 1000 keine Meldung
Mi, 23.01. 17:30 999 + 1,0
Mi, 23.01. 17:20 999 keine Meldung
Mi, 23.01. 17:00 999 + 0,7
Mi, 23.01. 16:30 999 + 0,3
Mi, 23.01. 16:00 999 + 0,4
Mi, 23.01. 15:30 999 - 0,1
Mi, 23.01. 15:00 999 - 0,3
Ortszeit Schneehöhe (cm)
Mi, 23.01. 13:00 3
Mi, 23.01. 7:00 3
Mi, 23.01. 1:00 3
Di, 22.01. 19:00 3
Di, 22.01. 13:00 3
Di, 22.01. 7:00 3
Di, 22.01. 1:00 3
Mo, 21.01. 19:00 3
Ortszeit Schneehöhe (cm)
Mi, 23.01. 18:10 3
Mi, 23.01. 18:00 3
Mi, 23.01. 17:50 3
Mi, 23.01. 17:40 3
Mi, 23.01. 17:30 3
Mi, 23.01. 17:20 3
Mi, 23.01. 17:00 3
Mi, 23.01. 16:30 3
Mi, 23.01. 16:00 3
Mi, 23.01. 15:30 3
Mi, 23.01. 15:00 3
Link zu dieser Seite / Seite empfehlen

Das Wetter in ...